sensor_id;sensor_type;location;lat;lon;timestamp;pressure;altitude;pressure_sealevel;temperature;humidity
23473;BME280;11909;52.516;13.564;2023-06-10T00:01:54;100988.88;;;18.10;72.35
23473;BME280;11909;52.516;13.564;2023-06-10T00:04:24;100986.09;;;18.10;71.94
23473;BME280;11909;52.516;13.564;2023-06-10T00:06:53;100980.53;;;18.01;72.32
23473;BME280;11909;52.516;13.564;2023-06-10T00:09:21;100985.09;;;17.97;72.32
23473;BME280;11909;52.516;13.564;2023-06-10T00:11:49;100991.97;;;18.00;71.80
23473;BME280;11909;52.516;13.564;2023-06-10T00:14:17;100985.56;;;17.90;72.28
23473;BME280;11909;52.516;13.564;2023-06-10T00:16:45;100985.88;;;17.80;73.57
23473;BME280;11909;52.516;13.564;2023-06-10T00:19:13;100969.72;;;17.82;73.37
23473;BME280;11909;52.516;13.564;2023-06-10T00:21:42;100973.78;;;17.76;73.68
23473;BME280;11909;52.516;13.564;2023-06-10T00:24:12;100974.28;;;17.78;73.41
23473;BME280;11909;52.516;13.564;2023-06-10T00:26:41;100971.34;;;17.83;73.02
23473;BME280;11909;52.516;13.564;2023-06-10T00:29:09;100969.38;;;17.84;73.17
23473;BME280;11909;52.516;13.564;2023-06-10T00:31:37;100972.31;;;17.78;72.99
23473;BME280;11909;52.516;13.564;2023-06-10T00:34:05;100970.50;;;17.65;73.70
23473;BME280;11909;52.516;13.564;2023-06-10T00:36:34;100967.09;;;17.77;73.70
23473;BME280;11909;52.516;13.564;2023-06-10T00:39:03;100976.22;;;17.69;73.48
23473;BME280;11909;52.516;13.564;2023-06-10T00:41:32;100973.78;;;17.67;73.68
23473;BME280;11909;52.516;13.564;2023-06-10T00:44:00;100973.75;;;17.58;74.28
23473;BME280;11909;52.516;13.564;2023-06-10T00:46:28;100968.06;;;17.63;74.10
23473;BME280;11909;52.516;13.564;2023-06-10T00:48:58;100973.44;;;17.69;73.85
23473;BME280;11909;52.516;13.564;2023-06-10T00:51:27;100973.72;;;17.49;74.72
23473;BME280;11909;52.516;13.564;2023-06-10T00:53:56;100980.72;;;17.47;74.76
23473;BME280;11909;52.516;13.564;2023-06-10T00:56:24;100971.88;;;17.36;75.61
23473;BME280;11909;52.516;13.564;2023-06-10T00:58:54;100973.72;;;17.49;74.86
23473;BME280;11909;52.516;13.564;2023-06-10T01:01:22;100975.22;;;17.56;74.73
23473;BME280;11909;52.516;13.564;2023-06-10T01:03:50;100980.09;;;17.50;74.98
23473;BME280;11909;52.516;13.564;2023-06-10T01:06:25;100977.81;;;17.43;75.01
23473;BME280;11909;52.516;13.564;2023-06-10T01:09:02;100978.28;;;17.45;75.34
23473;BME280;11909;52.516;13.564;2023-06-10T01:11:36;100982.97;;;17.36;75.36
23473;BME280;11909;52.516;13.564;2023-06-10T01:14:07;100983.78;;;17.28;76.08
23473;BME280;11909;52.516;13.564;2023-06-10T01:16:37;100988.69;;;17.31;75.83
23473;BME280;11909;52.516;13.564;2023-06-10T01:19:07;100986.06;;;17.26;75.75
23473;BME280;11909;52.516;13.564;2023-06-10T01:21:39;100989.97;;;17.25;75.82
23473;BME280;11909;52.516;13.564;2023-06-10T01:24:07;100985.63;;;17.01;77.52
23473;BME280;11909;52.516;13.564;2023-06-10T01:26:37;100992.34;;;17.09;76.71
23473;BME280;11909;52.516;13.564;2023-06-10T01:29:11;100992.25;;;17.23;76.40
23473;BME280;11909;52.516;13.564;2023-06-10T01:31:42;100984.88;;;17.18;76.24
23473;BME280;11909;52.516;13.564;2023-06-10T01:34:14;100982.25;;;17.13;76.56
23473;BME280;11909;52.516;13.564;2023-06-10T01:36:47;100993.19;;;17.18;76.06
23473;BME280;11909;52.516;13.564;2023-06-10T01:39:16;100985.22;;;16.94;77.35
23473;BME280;11909;52.516;13.564;2023-06-10T01:41:45;100989.63;;;16.95;77.47
23473;BME280;11909;52.516;13.564;2023-06-10T01:44:17;100984.66;;;16.83;77.94
23473;BME280;11909;52.516;13.564;2023-06-10T01:46:46;100983.22;;;16.85;77.80
23473;BME280;11909;52.516;13.564;2023-06-10T01:49:13;100982.72;;;16.83;77.83
23473;BME280;11909;52.516;13.564;2023-06-10T01:51:42;100985.28;;;16.80;78.39
23473;BME280;11909;52.516;13.564;2023-06-10T01:54:11;100989.69;;;16.81;78.39
23473;BME280;11909;52.516;13.564;2023-06-10T01:56:39;100983.53;;;16.84;78.04
23473;BME280;11909;52.516;13.564;2023-06-10T01:59:07;100986.44;;;16.78;78.32
23473;BME280;11909;52.516;13.564;2023-06-10T02:01:34;100988.22;;;16.74;78.09
23473;BME280;11909;52.516;13.564;2023-06-10T02:04:03;100980.34;;;16.68;78.91
23473;BME280;11909;52.516;13.564;2023-06-10T02:06:31;100989.47;;;16.68;78.73
23473;BME280;11909;52.516;13.564;2023-06-10T02:08:59;100993.25;;;16.72;78.45
23473;BME280;11909;52.516;13.564;2023-06-10T02:11:28;100988.84;;;16.71;78.38
23473;BME280;11909;52.516;13.564;2023-06-10T02:13:56;100990.75;;;16.62;78.81
23473;BME280;11909;52.516;13.564;2023-06-10T02:16:24;100990.34;;;16.55;79.46
23473;BME280;11909;52.516;13.564;2023-06-10T02:18:53;100993.31;;;16.58;79.06
23473;BME280;11909;52.516;13.564;2023-06-10T02:21:22;101000.50;;;16.59;79.00
23473;BME280;11909;52.516;13.564;2023-06-10T02:23:49;100997.44;;;16.61;78.93
23473;BME280;11909;52.516;13.564;2023-06-10T02:26:18;100991.56;;;16.62;79.08
23473;BME280;11909;52.516;13.564;2023-06-10T02:28:48;100997.16;;;16.71;78.39
23473;BME280;11909;52.516;13.564;2023-06-10T02:31:17;101005.41;;;16.62;78.88
23473;BME280;11909;52.516;13.564;2023-06-10T02:33:46;101006.25;;;16.63;78.64
23473;BME280;11909;52.516;13.564;2023-06-10T02:36:14;100999.50;;;16.55;78.95
23473;BME280;11909;52.516;13.564;2023-06-10T02:38:42;101005.34;;;16.54;79.14
23473;BME280;11909;52.516;13.564;2023-06-10T02:41:10;100999.72;;;16.45;79.44
23473;BME280;11909;52.516;13.564;2023-06-10T02:43:38;101003.06;;;16.56;79.32
23473;BME280;11909;52.516;13.564;2023-06-10T02:46:07;101002.28;;;16.55;79.08
23473;BME280;11909;52.516;13.564;2023-06-10T02:48:40;100994.47;;;16.57;79.12
23473;BME280;11909;52.516;13.564;2023-06-10T02:51:09;100997.47;;;16.47;79.36
23473;BME280;11909;52.516;13.564;2023-06-10T02:53:37;100990.41;;;16.41;79.96
23473;BME280;11909;52.516;13.564;2023-06-10T02:56:05;100997.59;;;16.42;79.84
23473;BME280;11909;52.516;13.564;2023-06-10T02:58:33;101000.00;;;16.34;79.94
23473;BME280;11909;52.516;13.564;2023-06-10T03:01:01;101004.41;;;16.36;79.68
23473;BME280;11909;52.516;13.564;2023-06-10T03:03:30;101003.25;;;16.37;80.04
23473;BME280;11909;52.516;13.564;2023-06-10T03:06:01;101007.16;;;16.36;79.83
23473;BME280;11909;52.516;13.564;2023-06-10T03:08:29;101000.63;;;16.31;79.89
23473;BME280;11909;52.516;13.564;2023-06-10T03:10:57;100998.47;;;16.28;79.85
23473;BME280;11909;52.516;13.564;2023-06-10T03:13:25;101001.56;;;16.27;80.40
23473;BME280;11909;52.516;13.564;2023-06-10T03:15:52;100996.91;;;16.36;80.09
23473;BME280;11909;52.516;13.564;2023-06-10T03:18:21;100997.56;;;16.19;80.76
23473;BME280;11909;52.516;13.564;2023-06-10T03:20:51;101002.72;;;16.12;81.10
23473;BME280;11909;52.516;13.564;2023-06-10T03:23:19;101004.56;;;16.16;80.72
23473;BME280;11909;52.516;13.564;2023-06-10T03:25:47;100998.00;;;16.12;80.44
23473;BME280;11909;52.516;13.564;2023-06-10T03:28:15;101003.88;;;16.11;81.09
23473;BME280;11909;52.516;13.564;2023-06-10T03:30:43;101005.47;;;16.26;80.64
23473;BME280;11909;52.516;13.564;2023-06-10T03:33:11;101003.13;;;16.19;80.72
23473;BME280;11909;52.516;13.564;2023-06-10T03:35:40;101007.25;;;16.08;81.38
23473;BME280;11909;52.516;13.564;2023-06-10T03:38:11;101003.03;;;16.10;81.13
23473;BME280;11909;52.516;13.564;2023-06-10T03:40:38;101006.75;;;16.05;81.39
23473;BME280;11909;52.516;13.564;2023-06-10T03:43:06;101009.53;;;16.05;81.39
23473;BME280;11909;52.516;13.564;2023-06-10T03:45:34;101017.19;;;16.09;81.36
23473;BME280;11909;52.516;13.564;2023-06-10T03:48:03;101010.13;;;16.02;81.70
23473;BME280;11909;52.516;13.564;2023-06-10T03:50:32;101010.22;;;16.11;81.93
23473;BME280;11909;52.516;13.564;2023-06-10T03:53:00;101016.56;;;16.12;81.44
23473;BME280;11909;52.516;13.564;2023-06-10T03:55:30;101015.94;;;16.15;81.29
23473;BME280;11909;52.516;13.564;2023-06-10T03:57:58;101016.25;;;16.13;81.75
23473;BME280;11909;52.516;13.564;2023-06-10T04:00:26;101021.69;;;16.18;81.58
23473;BME280;11909;52.516;13.564;2023-06-10T04:02:56;101022.00;;;16.17;81.47
23473;BME280;11909;52.516;13.564;2023-06-10T04:05:24;101021.19;;;16.16;81.32
23473;BME280;11909;52.516;13.564;2023-06-10T04:07:52;101023.75;;;16.13;82.26
23473;BME280;11909;52.516;13.564;2023-06-10T04:10:20;101021.28;;;16.11;82.32
23473;BME280;11909;52.516;13.564;2023-06-10T04:12:50;101025.09;;;16.15;81.83
23473;BME280;11909;52.516;13.564;2023-06-10T04:15:17;101028.28;;;16.09;82.42
23473;BME280;11909;52.516;13.564;2023-06-10T04:17:45;101024.38;;;16.10;82.20
23473;BME280;11909;52.516;13.564;2023-06-10T04:20:15;101022.69;;;16.23;82.09
23473;BME280;11909;52.516;13.564;2023-06-10T04:22:44;101021.16;;;16.30;82.06
23473;BME280;11909;52.516;13.564;2023-06-10T04:25:12;101021.00;;;16.36;81.25
23473;BME280;11909;52.516;13.564;2023-06-10T04:27:39;101031.66;;;16.42;81.46
23473;BME280;11909;52.516;13.564;2023-06-10T04:30:10;101035.66;;;16.36;81.57
23473;BME280;11909;52.516;13.564;2023-06-10T04:32:38;101035.16;;;16.34;81.66
23473;BME280;11909;52.516;13.564;2023-06-10T04:35:07;101034.75;;;16.41;81.66
23473;BME280;11909;52.516;13.564;2023-06-10T04:37:35;101039.78;;;16.39;81.91
23473;BME280;11909;52.516;13.564;2023-06-10T04:40:04;101036.81;;;16.35;82.08
23473;BME280;11909;52.516;13.564;2023-06-10T04:42:32;101040.78;;;16.43;81.94
23473;BME280;11909;52.516;13.564;2023-06-10T04:45:00;101043.75;;;16.46;82.32
23473;BME280;11909;52.516;13.564;2023-06-10T04:47:29;101044.63;;;16.56;81.79
23473;BME280;11909;52.516;13.564;2023-06-10T04:50:00;101042.56;;;16.61;81.75
23473;BME280;11909;52.516;13.564;2023-06-10T04:52:28;101046.34;;;16.66;81.48
23473;BME280;11909;52.516;13.564;2023-06-10T04:54:57;101052.38;;;16.68;81.81
23473;BME280;11909;52.516;13.564;2023-06-10T04:57:25;101049.31;;;16.69;81.78
23473;BME280;11909;52.516;13.564;2023-06-10T04:59:53;101056.84;;;16.77;81.71
23473;BME280;11909;52.516;13.564;2023-06-10T05:02:21;101051.06;;;16.88;81.61
23473;BME280;11909;52.516;13.564;2023-06-10T05:04:51;101058.41;;;16.92;81.98
23473;BME280;11909;52.516;13.564;2023-06-10T05:07:19;101060.63;;;17.04;81.81
23473;BME280;11909;52.516;13.564;2023-06-10T05:09:47;101057.63;;;17.15;81.69
23473;BME280;11909;52.516;13.564;2023-06-10T05:12:15;101062.88;;;17.25;81.39
23473;BME280;11909;52.516;13.564;2023-06-10T05:14:43;101065.41;;;17.36;81.05
23473;BME280;11909;52.516;13.564;2023-06-10T05:17:11;101067.06;;;17.45;81.15
23473;BME280;11909;52.516;13.564;2023-06-10T05:19:39;101066.94;;;17.51;81.08
23473;BME280;11909;52.516;13.564;2023-06-10T05:22:09;101066.28;;;17.54;80.30
23473;BME280;11909;52.516;13.564;2023-06-10T05:24:37;101069.09;;;17.62;80.25
23473;BME280;11909;52.516;13.564;2023-06-10T05:27:05;101065.38;;;17.67;80.00
23473;BME280;11909;52.516;13.564;2023-06-10T05:29:34;101072.06;;;17.75;79.41
23473;BME280;11909;52.516;13.564;2023-06-10T05:32:02;101066.22;;;17.85;79.95
23473;BME280;11909;52.516;13.564;2023-06-10T05:34:30;101071.31;;;17.92;79.79
23473;BME280;11909;52.516;13.564;2023-06-10T05:36:59;101075.88;;;17.97;79.11
23473;BME280;11909;52.516;13.564;2023-06-10T05:39:28;101076.28;;;18.04;78.82
23473;BME280;11909;52.516;13.564;2023-06-10T05:41:56;101077.91;;;18.05;78.08
23473;BME280;11909;52.516;13.564;2023-06-10T05:44:25;101077.91;;;18.05;78.15
23473;BME280;11909;52.516;13.564;2023-06-10T05:46:53;101080.34;;;18.06;77.93
23473;BME280;11909;52.516;13.564;2023-06-10T05:49:21;101070.06;;;18.07;78.01
23473;BME280;11909;52.516;13.564;2023-06-10T05:51:49;101072.84;;;18.07;77.73
23473;BME280;11909;52.516;13.564;2023-06-10T05:54:18;101073.34;;;18.09;77.43
23473;BME280;11909;52.516;13.564;2023-06-10T05:56:48;101076.91;;;18.10;77.24
23473;BME280;11909;52.516;13.564;2023-06-10T05:59:15;101073.53;;;18.13;77.89
23473;BME280;11909;52.516;13.564;2023-06-10T06:01:43;101074.00;;;18.15;77.22
23473;BME280;11909;52.516;13.564;2023-06-10T06:04:11;101083.50;;;18.23;77.30
23473;BME280;11909;52.516;13.564;2023-06-10T06:06:39;101084.97;;;18.29;77.51
23473;BME280;11909;52.516;13.564;2023-06-10T06:09:07;101085.66;;;18.34;77.43
23473;BME280;11909;52.516;13.564;2023-06-10T06:11:36;101084.50;;;18.36;77.02
23473;BME280;11909;52.516;13.564;2023-06-10T06:14:05;101088.41;;;18.34;77.15
23473;BME280;11909;52.516;13.564;2023-06-10T06:16:33;101096.41;;;18.36;77.18
23473;BME280;11909;52.516;13.564;2023-06-10T06:19:01;101092.31;;;18.42;77.23
23473;BME280;11909;52.516;13.564;2023-06-10T06:21:29;101097.41;;;18.49;76.66
23473;BME280;11909;52.516;13.564;2023-06-10T06:23:57;101096.09;;;18.55;76.40
23473;BME280;11909;52.516;13.564;2023-06-10T06:26:25;101098.38;;;18.62;76.52
23473;BME280;11909;52.516;13.564;2023-06-10T06:28:53;101095.97;;;18.69;76.55
23473;BME280;11909;52.516;13.564;2023-06-10T06:31:22;101104.44;;;18.73;76.36
23473;BME280;11909;52.516;13.564;2023-06-10T06:33:50;101094.94;;;18.74;75.82
23473;BME280;11909;52.516;13.564;2023-06-10T06:36:18;101099.38;;;18.84;75.90
23473;BME280;11909;52.516;13.564;2023-06-10T06:38:46;101106.38;;;18.90;76.36
23473;BME280;11909;52.516;13.564;2023-06-10T06:41:14;101113.75;;;18.95;76.10
23473;BME280;11909;52.516;13.564;2023-06-10T06:43:43;101112.94;;;19.03;75.24
23473;BME280;11909;52.516;13.564;2023-06-10T06:46:10;101119.16;;;19.09;74.92
23473;BME280;11909;52.516;13.564;2023-06-10T06:48:44;101122.41;;;19.19;75.25
23473;BME280;11909;52.516;13.564;2023-06-10T06:51:12;101116.34;;;19.26;75.58
23473;BME280;11909;52.516;13.564;2023-06-10T06:53:40;101121.41;;;19.33;74.73
23473;BME280;11909;52.516;13.564;2023-06-10T06:56:11;101124.31;;;19.37;74.19
23473;BME280;11909;52.516;13.564;2023-06-10T06:58:40;101123.34;;;19.41;74.61
23473;BME280;11909;52.516;13.564;2023-06-10T07:01:08;101122.34;;;19.46;74.41
23473;BME280;11909;52.516;13.564;2023-06-10T07:03:37;101129.06;;;19.54;74.45
23473;BME280;11909;52.516;13.564;2023-06-10T07:06:06;101117.38;;;19.60;74.05
23473;BME280;11909;52.516;13.564;2023-06-10T07:08:34;101122.44;;;19.67;74.12
23473;BME280;11909;52.516;13.564;2023-06-10T07:11:02;101124.03;;;19.77;74.88
23473;BME280;11909;52.516;13.564;2023-06-10T07:13:30;101126.63;;;19.82;73.73
23473;BME280;11909;52.516;13.564;2023-06-10T07:15:58;101127.25;;;19.88;71.91
23473;BME280;11909;52.516;13.564;2023-06-10T07:18:26;101129.41;;;19.91;72.07
23473;BME280;11909;52.516;13.564;2023-06-10T07:20:54;101131.50;;;19.94;72.64
23473;BME280;11909;52.516;13.564;2023-06-10T07:23:23;101134.72;;;20.05;72.51
23473;BME280;11909;52.516;13.564;2023-06-10T07:25:51;101132.59;;;20.11;72.46
23473;BME280;11909;52.516;13.564;2023-06-10T07:28:20;101136.94;;;20.20;72.09
23473;BME280;11909;52.516;13.564;2023-06-10T07:30:47;101142.00;;;20.27;71.79
23473;BME280;11909;52.516;13.564;2023-06-10T07:33:16;101151.66;;;20.30;70.71
23473;BME280;11909;52.516;13.564;2023-06-10T07:35:43;101165.25;;;20.31;70.77
23473;BME280;11909;52.516;13.564;2023-06-10T07:38:11;101159.16;;;20.38;69.94
23473;BME280;11909;52.516;13.564;2023-06-10T07:40:40;101157.16;;;20.39;69.70
23473;BME280;11909;52.516;13.564;2023-06-10T07:43:09;101156.16;;;20.43;70.19
23473;BME280;11909;52.516;13.564;2023-06-10T07:45:36;101154.13;;;20.53;70.12
23473;BME280;11909;52.516;13.564;2023-06-10T07:48:05;101158.16;;;20.64;70.48
23473;BME280;11909;52.516;13.564;2023-06-10T07:50:32;101148.31;;;20.88;68.91
23473;BME280;11909;52.516;13.564;2023-06-10T07:53:01;101155.38;;;21.06;68.29
23473;BME280;11909;52.516;13.564;2023-06-10T07:55:29;101156.38;;;21.23;68.18
23473;BME280;11909;52.516;13.564;2023-06-10T07:57:58;101158.16;;;21.40;65.06
23473;BME280;11909;52.516;13.564;2023-06-10T08:00:26;101165.19;;;21.59;65.06
23473;BME280;11909;52.516;13.564;2023-06-10T08:02:54;101155.75;;;21.63;65.36
23473;BME280;11909;52.516;13.564;2023-06-10T08:05:22;101156.03;;;21.71;64.80
23473;BME280;11909;52.516;13.564;2023-06-10T08:07:50;101158.94;;;21.74;64.49
23473;BME280;11909;52.516;13.564;2023-06-10T08:10:18;101162.00;;;21.82;64.95
23473;BME280;11909;52.516;13.564;2023-06-10T08:12:46;101162.09;;;21.85;64.10
23473;BME280;11909;52.516;13.564;2023-06-10T08:15:16;101159.91;;;21.91;64.74
23473;BME280;11909;52.516;13.564;2023-06-10T08:17:44;101165.13;;;22.05;65.28
23473;BME280;11909;52.516;13.564;2023-06-10T08:20:12;101153.72;;;22.23;65.81
23473;BME280;11909;52.516;13.564;2023-06-10T08:22:40;101165.81;;;22.39;63.18
23473;BME280;11909;52.516;13.564;2023-06-10T08:25:08;101168.28;;;22.53;61.01
23473;BME280;11909;52.516;13.564;2023-06-10T08:27:37;101165.09;;;22.67;61.96
23473;BME280;11909;52.516;13.564;2023-06-10T08:30:06;101173.56;;;22.71;61.07
23473;BME280;11909;52.516;13.564;2023-06-10T08:32:35;101171.81;;;22.78;61.50
23473;BME280;11909;52.516;13.564;2023-06-10T08:35:04;101179.34;;;22.90;60.31
23473;BME280;11909;52.516;13.564;2023-06-10T08:37:32;101184.09;;;23.02;60.41
23473;BME280;11909;52.516;13.564;2023-06-10T08:40:00;101182.63;;;23.21;60.40
23473;BME280;11909;52.516;13.564;2023-06-10T08:42:33;101177.34;;;23.32;59.43
23473;BME280;11909;52.516;13.564;2023-06-10T08:45:02;101185.94;;;23.39;60.02
23473;BME280;11909;52.516;13.564;2023-06-10T08:47:32;101186.31;;;23.38;58.30
23473;BME280;11909;52.516;13.564;2023-06-10T08:50:05;101189.25;;;23.57;57.95
23473;BME280;11909;52.516;13.564;2023-06-10T08:52:42;101188.25;;;23.66;58.42
23473;BME280;11909;52.516;13.564;2023-06-10T08:55:14;101184.28;;;23.67;58.47
23473;BME280;11909;52.516;13.564;2023-06-10T08:57:42;101194.31;;;23.68;56.75
23473;BME280;11909;52.516;13.564;2023-06-10T09:00:12;101189.16;;;23.70;57.20
23473;BME280;11909;52.516;13.564;2023-06-10T09:02:40;101197.22;;;23.71;56.54
23473;BME280;11909;52.516;13.564;2023-06-10T09:05:10;101192.06;;;23.73;57.59
23473;BME280;11909;52.516;13.564;2023-06-10T09:07:39;101188.81;;;23.71;57.82
23473;BME280;11909;52.516;13.564;2023-06-10T09:10:07;101193.13;;;23.69;57.72
23473;BME280;11909;52.516;13.564;2023-06-10T09:12:36;101190.78;;;23.71;56.55
23473;BME280;11909;52.516;13.564;2023-06-10T09:15:05;101198.00;;;23.72;56.48
23473;BME280;11909;52.516;13.564;2023-06-10T09:17:35;101192.25;;;23.81;56.25
23473;BME280;11909;52.516;13.564;2023-06-10T09:20:04;101188.81;;;23.87;56.41
23473;BME280;11909;52.516;13.564;2023-06-10T09:22:37;101195.31;;;23.91;54.94
23473;BME280;11909;52.516;13.564;2023-06-10T09:25:06;101199.41;;;23.94;55.57
23473;BME280;11909;52.516;13.564;2023-06-10T09:27:44;101200.56;;;23.93;56.07
23473;BME280;11909;52.516;13.564;2023-06-10T09:30:25;101204.16;;;23.94;56.76
23473;BME280;11909;52.516;13.564;2023-06-10T09:32:54;101207.06;;;23.81;56.50
23473;BME280;11909;52.516;13.564;2023-06-10T09:35:25;101212.28;;;23.67;57.11
23473;BME280;11909;52.516;13.564;2023-06-10T09:37:56;101215.63;;;23.56;57.46
23473;BME280;11909;52.516;13.564;2023-06-10T09:40:24;101210.81;;;23.41;57.26
23473;BME280;11909;52.516;13.564;2023-06-10T09:42:53;101206.63;;;23.34;59.19
23473;BME280;11909;52.516;13.564;2023-06-10T09:45:22;101215.66;;;23.28;59.03
23473;BME280;11909;52.516;13.564;2023-06-10T09:47:51;101200.72;;;23.24;59.60
23473;BME280;11909;52.516;13.564;2023-06-10T09:50:20;101210.50;;;23.17;59.94
23473;BME280;11909;52.516;13.564;2023-06-10T09:52:48;101214.97;;;23.18;59.90
23473;BME280;11909;52.516;13.564;2023-06-10T09:55:17;101202.69;;;23.23;58.75
23473;BME280;11909;52.516;13.564;2023-06-10T09:57:49;101215.88;;;23.23;56.90
23473;BME280;11909;52.516;13.564;2023-06-10T10:00:17;101207.47;;;23.23;57.13
23473;BME280;11909;52.516;13.564;2023-06-10T10:02:47;101200.72;;;23.24;57.09
23473;BME280;11909;52.516;13.564;2023-06-10T10:05:17;101201.19;;;23.26;57.46
23473;BME280;11909;52.516;13.564;2023-06-10T10:07:46;101205.25;;;23.28;56.82
23473;BME280;11909;52.516;13.564;2023-06-10T10:10:15;101213.75;;;23.32;56.46
23473;BME280;11909;52.516;13.564;2023-06-10T10:12:46;101207.69;;;23.30;55.53
23473;BME280;11909;52.516;13.564;2023-06-10T10:15:16;101206.97;;;23.33;54.92
23473;BME280;11909;52.516;13.564;2023-06-10T10:17:49;101228.66;;;23.36;54.22
23473;BME280;11909;52.516;13.564;2023-06-10T10:20:24;101220.56;;;23.47;53.93
23473;BME280;11909;52.516;13.564;2023-06-10T10:22:56;101221.59;;;23.71;53.43
23473;BME280;11909;52.516;13.564;2023-06-10T10:25:27;101219.09;;;23.98;53.53
23473;BME280;11909;52.516;13.564;2023-06-10T10:27:59;101216.34;;;24.14;53.43
23473;BME280;11909;52.516;13.564;2023-06-10T10:30:35;101214.97;;;24.24;52.18
23473;BME280;11909;52.516;13.564;2023-06-10T10:33:07;101222.56;;;24.23;50.53
23473;BME280;11909;52.516;13.564;2023-06-10T10:35:37;101217.28;;;24.22;50.00
23473;BME280;11909;52.516;13.564;2023-06-10T10:38:06;101211.16;;;24.16;50.15
23473;BME280;11909;52.516;13.564;2023-06-10T10:40:34;101200.88;;;24.04;50.03
23473;BME280;11909;52.516;13.564;2023-06-10T10:43:04;101203.00;;;23.95;49.48
23473;BME280;11909;52.516;13.564;2023-06-10T10:45:34;101199.66;;;23.89;49.00
23473;BME280;11909;52.516;13.564;2023-06-10T10:48:06;101200.56;;;23.77;49.97
23473;BME280;11909;52.516;13.564;2023-06-10T10:50:39;101192.97;;;23.77;50.99
23473;BME280;11909;52.516;13.564;2023-06-10T10:53:07;101188.88;;;23.75;51.07
23473;BME280;11909;52.516;13.564;2023-06-10T10:55:35;101190.59;;;23.80;50.32
23473;BME280;11909;52.516;13.564;2023-06-10T10:58:06;101192.78;;;23.86;50.72
23473;BME280;11909;52.516;13.564;2023-06-10T11:00:35;101193.59;;;23.87;50.91
23473;BME280;11909;52.516;13.564;2023-06-10T11:03:06;101188.09;;;23.90;50.49
23473;BME280;11909;52.516;13.564;2023-06-10T11:05:39;101183.81;;;23.97;50.69
23473;BME280;11909;52.516;13.564;2023-06-10T11:08:08;101181.13;;;24.16;51.18
23473;BME280;11909;52.516;13.564;2023-06-10T11:10:38;101182.91;;;24.41;51.17
23473;BME280;11909;52.516;13.564;2023-06-10T11:13:09;101181.56;;;24.70;49.71
23473;BME280;11909;52.516;13.564;2023-06-10T11:15:44;101194.97;;;24.97;46.81
23473;BME280;11909;52.516;13.564;2023-06-10T11:18:18;101187.50;;;25.24;45.72
23473;BME280;11909;52.516;13.564;2023-06-10T11:20:55;101196.69;;;25.44;44.72
23473;BME280;11909;52.516;13.564;2023-06-10T11:23:32;101200.81;;;25.70;44.84
23473;BME280;11909;52.516;13.564;2023-06-10T11:26:13;101201.81;;;25.82;45.19
23473;BME280;11909;52.516;13.564;2023-06-10T11:29:04;101191.56;;;25.93;46.01
23473;BME280;11909;52.516;13.564;2023-06-10T11:31:38;101198.44;;;25.96;45.37
23473;BME280;11909;52.516;13.564;2023-06-10T11:34:07;101192.50;;;26.01;46.56
23473;BME280;11909;52.516;13.564;2023-06-10T11:36:37;101194.97;;;26.06;46.90
23473;BME280;11909;52.516;13.564;2023-06-10T11:39:06;101194.81;;;26.18;46.72
23473;BME280;11909;52.516;13.564;2023-06-10T11:41:37;101188.50;;;26.25;47.19
23473;BME280;11909;52.516;13.564;2023-06-10T11:44:08;101192.34;;;26.40;47.24
23473;BME280;11909;52.516;13.564;2023-06-10T11:46:37;101190.47;;;26.52;48.38
23473;BME280;11909;52.516;13.564;2023-06-10T11:49:06;101188.63;;;26.63;47.78
23473;BME280;11909;52.516;13.564;2023-06-10T11:51:35;101184.00;;;26.78;46.96
23473;BME280;11909;52.516;13.564;2023-06-10T11:54:05;101196.28;;;26.93;44.39
23473;BME280;11909;52.516;13.564;2023-06-10T11:56:34;101197.97;;;26.98;44.27
23473;BME280;11909;52.516;13.564;2023-06-10T11:59:04;101190.38;;;27.02;44.93
23473;BME280;11909;52.516;13.564;2023-06-10T12:01:35;101183.63;;;27.10;45.08
23473;BME280;11909;52.516;13.564;2023-06-10T12:04:09;101188.16;;;27.18;44.46
23473;BME280;11909;52.516;13.564;2023-06-10T12:06:38;101184.63;;;27.25;42.49
23473;BME280;11909;52.516;13.564;2023-06-10T12:09:07;101177.84;;;27.33;43.58
23473;BME280;11909;52.516;13.564;2023-06-10T12:11:50;101179.16;;;27.43;43.95
23473;BME280;11909;52.516;13.564;2023-06-10T12:14:50;101167.53;;;27.48;43.63
23473;BME280;11909;52.516;13.564;2023-06-10T12:17:20;101162.03;;;27.59;44.82
23473;BME280;11909;52.516;13.564;2023-06-10T12:19:48;101165.34;;;27.69;45.74
23473;BME280;11909;52.516;13.564;2023-06-10T12:22:16;101165.44;;;27.80;44.38
23473;BME280;11909;52.516;13.564;2023-06-10T12:24:57;101163.88;;;27.86;44.46
23473;BME280;11909;52.516;13.564;2023-06-10T12:27:29;101163.97;;;27.97;45.24
23473;BME280;11909;52.516;13.564;2023-06-10T12:29:58;101154.38;;;28.09;44.99
23473;BME280;11909;52.516;13.564;2023-06-10T12:32:39;101150.47;;;28.24;44.00
23473;BME280;11909;52.516;13.564;2023-06-10T12:35:09;101149.72;;;28.34;44.04
23473;BME280;11909;52.516;13.564;2023-06-10T12:37:39;101146.50;;;28.36;44.18
23473;BME280;11909;52.516;13.564;2023-06-10T12:40:10;101144.88;;;28.31;43.40
23473;BME280;11909;52.516;13.564;2023-06-10T12:42:38;101143.22;;;28.27;43.56
23473;BME280;11909;52.516;13.564;2023-06-10T12:45:07;101150.16;;;28.37;43.21
23473;BME280;11909;52.516;13.564;2023-06-10T12:47:38;101138.50;;;28.45;42.19
23473;BME280;11909;52.516;13.564;2023-06-10T12:50:07;101141.75;;;28.55;40.94
23473;BME280;11909;52.516;13.564;2023-06-10T12:52:35;101137.44;;;28.72;40.57